Ana Sayfa
METAR-TAF:

METAR-TAF

Havaalanları :

Chihuahua, Meksika

Enlem: 28-42N, Boylam: 105-58W, yükseklik: 1360 m

Güncel hava durumu gözlemi

Rapor saat 00:40 UTC de 23 dakika önce yapıldı.
Rüzgar doğudan 7 kt
Sıcaklık 18°C
Nem 32%
Basınç 1019 hPa
Görüş mesafesi: 16.1 km
Açık gökyüzü

METAR: MMCU 270040Z 09007KT 10SM SKC 18/01 A3009 RMK ISOL CU

Saat: 18:03 (01:03 UTC)

Tahmin

Rapor saat 17:20 UTC de 7 saat ve 43 dakika önce yapıldı.
Ayın 26'si saat 18 UTC'den ayın 27'si saat 18 UTC'ye kadar geçerli Tahmin
Rüzgar güneybatıdan 15 kt
Görüş mesafesi: 10 km
Açık gökyüzü
Dönüşüyor
ayın 27'si saat 02 UTC'den ayın 27'si saat 03 UTC'ye kadar
Rüzgar kuzeydan kt
Ayın 27'si saat 1600 UTC'den
Rüzgar batıdan 10 kt
Görüş mesafesi: 10 km
Açık gökyüzü

TAF: MMCU 261720Z 2618/2718 22015KT P6SM SKC BECMG 2702/2703 00000KT FM271600 27010KT P6SM SKC

4.000'den fazla havaalanı için hava durumu gözlemleri ve tahminleri (METAR ve TAF raporları).

Kullanılabilir istasyonlar harita üzerinde sarı ve kırmızı noktalarla gösterilir.

İstasyonun adını görmek için fareyi noktanın üzerinde gezdirin.

Sonrasında hava gözlem ve tahminlerini görmek için tıklayın.

Haritayı değiştirmek için: yaklaştırmak için siyah artı işaretli yeşil düğmeye ve uzaklaştırmak için de eksi işaretli düğmeye hızla tıklayın; bitişik haritalar için yeşil okları kullanın.


METAR-TAF: